createdAt,value
2023-01-05T00:01:07.495Z,19.65
2023-01-05T00:03:36.096Z,20.05
2023-01-05T00:06:08.113Z,19.52
2023-01-05T00:08:37.671Z,18.25
2023-01-05T00:11:35.601Z,20.23
2023-01-05T00:14:25.193Z,17.85
2023-01-05T00:17:11.812Z,19.65
2023-01-05T00:20:16.210Z,18.70
2023-01-05T00:22:48.502Z,22.30
2023-01-05T00:25:17.945Z,21.35
2023-01-05T00:27:46.407Z,20.23
2023-01-05T00:30:15.577Z,22.83
2023-01-05T00:32:43.760Z,23.80
2023-01-05T00:35:11.805Z,23.92
2023-01-05T00:37:40.146Z,27.42
2023-01-05T00:40:12.140Z,25.90
2023-01-05T00:42:39.851Z,25.95
2023-01-05T00:45:08.741Z,28.75
2023-01-05T00:47:36.687Z,26.20
2023-01-05T00:50:04.949Z,27.52
2023-01-05T00:52:32.763Z,27.52
2023-01-05T00:55:02.654Z,26.05
2023-01-05T00:57:31.298Z,25.75
2023-01-05T00:59:59.470Z,25.20
2023-01-05T01:02:27.513Z,27.08
2023-01-05T01:04:57.841Z,25.08
2023-01-05T01:07:25.881Z,26.42
2023-01-05T01:09:53.660Z,24.92
2023-01-05T01:12:21.440Z,25.90
2023-01-05T01:14:49.599Z,26.85
2023-01-05T01:17:17.561Z,27.92
2023-01-05T01:19:46.928Z,27.88
2023-01-05T01:22:14.872Z,26.45
2023-01-05T01:24:42.691Z,25.17
2023-01-05T01:27:11.110Z,25.33
2023-01-05T01:29:39.879Z,27.52
2023-01-05T01:32:07.839Z,26.25
2023-01-05T01:34:35.881Z,24.30
2023-01-05T01:37:03.705Z,23.10
2023-01-05T01:39:37.649Z,20.83
2023-01-05T01:42:15.898Z,20.60
2023-01-05T01:44:48.157Z,18.42
2023-01-05T01:47:46.357Z,17.27
2023-01-05T01:50:23.237Z,18.40
2023-01-05T01:52:51.646Z,17.73
2023-01-05T01:55:19.572Z,17.95
2023-01-05T01:57:48.084Z,17.20
2023-01-05T02:00:17.323Z,15.52
2023-01-05T02:02:53.888Z,14.48
2023-01-05T02:05:29.655Z,14.32
2023-01-05T02:07:58.686Z,14.38
2023-01-05T02:10:50.994Z,14.18
2023-01-05T02:13:46.589Z,12.57
2023-01-05T02:16:36.153Z,12.05
2023-01-05T02:19:19.824Z,13.80
2023-01-05T02:22:02.776Z,11.55
2023-01-05T02:25:09.070Z,11.90
2023-01-05T02:28:18.903Z,10.40
2023-01-05T02:31:08.897Z,10.52
2023-01-05T02:34:07.728Z,10.50
2023-01-05T02:36:44.663Z,9.40
2023-01-05T02:39:21.866Z,10.00
2023-01-05T02:42:06.055Z,10.25
2023-01-05T02:44:35.644Z,10.27
2023-01-05T02:47:08.079Z,10.50
2023-01-05T02:49:38.456Z,11.30
2023-01-05T02:52:08.437Z,11.88
2023-01-05T02:54:48.053Z,9.88
2023-01-05T02:57:18.338Z,9.35
2023-01-05T02:59:51.400Z,10.00
2023-01-05T03:02:21.769Z,11.80
2023-01-05T03:05:13.735Z,11.88
2023-01-05T03:07:42.966Z,12.68
2023-01-05T03:10:31.533Z,11.98
2023-01-05T03:13:20.337Z,10.65
2023-01-05T03:15:48.698Z,11.57
2023-01-05T03:18:18.535Z,11.77
2023-01-05T03:20:51.511Z,10.90
2023-01-05T03:23:38.073Z,10.98
2023-01-05T03:26:26.463Z,9.82
2023-01-05T03:29:15.770Z,9.77
2023-01-05T03:32:20.055Z,10.07
2023-01-05T03:35:18.183Z,9.77
2023-01-05T03:37:54.094Z,10.82
2023-01-05T03:40:32.057Z,8.90
2023-01-05T03:43:00.302Z,9.50
2023-01-05T03:48:08.264Z,9.02
2023-01-05T03:50:37.054Z,9.63
2023-01-05T03:53:05.610Z,8.63
2023-01-05T03:55:34.202Z,8.32
2023-01-05T03:58:02.173Z,7.80
2023-01-05T04:00:30.713Z,7.95
2023-01-05T04:03:05.206Z,7.45
2023-01-05T04:05:33.252Z,7.88
2023-01-05T04:08:02.251Z,7.78
2023-01-05T04:10:30.499Z,8.02
2023-01-05T04:13:02.020Z,7.90
2023-01-05T04:15:30.945Z,9.07
2023-01-05T04:17:59.468Z,9.35
2023-01-05T04:20:27.459Z,9.65
2023-01-05T04:22:58.683Z,7.97
2023-01-05T04:25:27.369Z,8.00
2023-01-05T04:27:55.693Z,7.25
2023-01-05T04:30:24.107Z,7.20
2023-01-05T04:32:51.963Z,6.90
2023-01-05T04:35:19.839Z,6.03
2023-01-05T04:37:49.570Z,6.53
2023-01-05T04:40:18.265Z,6.78
2023-01-05T04:42:51.419Z,7.35
2023-01-05T04:45:19.785Z,5.95
2023-01-05T04:47:48.137Z,5.72
2023-01-05T04:50:21.201Z,5.78
2023-01-05T04:52:50.463Z,5.90
2023-01-05T04:55:21.018Z,4.60
2023-01-05T04:57:49.096Z,6.57
2023-01-05T05:00:19.756Z,4.68
2023-01-05T05:02:51.890Z,5.82
2023-01-05T05:05:20.405Z,7.35
2023-01-05T05:07:52.032Z,7.57
2023-01-05T05:10:20.130Z,7.78
2023-01-05T05:12:49.185Z,8.70
2023-01-05T05:15:17.270Z,9.98
2023-01-05T05:17:48.712Z,7.47
2023-01-05T05:20:19.384Z,7.30
2023-01-05T05:22:47.331Z,7.00
2023-01-05T05:25:18.549Z,6.88
2023-01-05T05:27:51.739Z,6.53
2023-01-05T05:30:19.820Z,6.40
2023-01-05T05:32:48.027Z,6.03
2023-01-05T05:35:20.059Z,6.07
2023-01-05T05:37:52.944Z,5.47
2023-01-05T05:40:26.596Z,6.03
2023-01-05T05:42:57.086Z,5.22
2023-01-05T05:45:25.301Z,5.65
2023-01-05T05:47:53.058Z,6.32
2023-01-05T05:50:21.498Z,5.22
2023-01-05T05:52:49.578Z,5.40
2023-01-05T05:55:17.996Z,5.10
2023-01-05T05:57:46.388Z,5.28
2023-01-05T06:00:15.135Z,5.43
2023-01-05T06:02:43.202Z,5.95
2023-01-05T06:05:11.302Z,5.25
2023-01-05T06:07:40.641Z,5.95
2023-01-05T06:10:09.351Z,5.80
2023-01-05T06:12:37.788Z,6.03
2023-01-05T06:15:06.626Z,5.50
2023-01-05T06:17:35.048Z,6.60
2023-01-05T06:20:03.367Z,5.80
2023-01-05T06:22:31.788Z,6.15
2023-01-05T06:24:59.712Z,6.05
2023-01-05T06:27:31.390Z,5.93
2023-01-05T06:30:04.518Z,6.65
2023-01-05T06:32:34.026Z,6.65
2023-01-05T06:35:05.035Z,7.80
2023-01-05T06:37:34.147Z,8.38
2023-01-05T06:40:06.499Z,13.02
2023-01-05T06:42:34.530Z,12.68
2023-01-05T06:45:02.577Z,37.50
2023-01-05T06:47:31.372Z,7.55
2023-01-05T06:49:59.981Z,6.55
2023-01-05T06:52:27.898Z,19.70
2023-01-05T06:54:55.670Z,12.05
2023-01-05T06:57:26.125Z,7.80
2023-01-05T06:59:53.967Z,14.07
2023-01-05T10:24:56.756Z,25.63
2023-01-05T10:27:30.543Z,17.98
2023-01-05T10:30:07.723Z,16.45
2023-01-05T10:33:22.017Z,24.40
2023-01-05T10:36:00.572Z,13.13
2023-01-05T10:38:35.780Z,25.92
2023-01-05T10:41:10.124Z,15.23
2023-01-05T10:43:59.974Z,12.85
2023-01-05T10:46:37.772Z,13.55
2023-01-05T10:49:08.693Z,10.40
2023-01-05T10:51:36.341Z,13.50
2023-01-05T10:54:04.203Z,18.85
2023-01-05T10:56:33.280Z,16.70
2023-01-05T10:59:11.990Z,13.88
2023-01-05T11:01:43.843Z,19.38
2023-01-05T11:04:33.909Z,14.38
2023-01-05T11:07:06.388Z,15.23
2023-01-05T11:09:33.945Z,18.08
2023-01-05T11:12:02.664Z,14.40
2023-01-05T11:14:36.507Z,11.38
2023-01-05T11:17:06.070Z,17.75
2023-01-05T11:19:37.296Z,11.40
2023-01-05T11:22:05.188Z,18.48
2023-01-05T11:24:34.507Z,15.10
2023-01-05T11:27:03.772Z,18.20
2023-01-05T11:29:31.346Z,15.27
2023-01-05T11:32:06.374Z,17.73
2023-01-05T11:34:41.963Z,16.52
2023-01-05T11:37:17.715Z,15.30
2023-01-05T11:39:46.266Z,14.57
2023-01-05T11:42:25.286Z,12.52
2023-01-05T11:45:00.991Z,16.50
2023-01-05T11:47:37.999Z,13.43
2023-01-05T11:50:14.709Z,16.45
2023-01-05T11:52:51.349Z,27.55
2023-01-05T11:55:41.463Z,17.40
2023-01-05T11:58:24.871Z,25.10
2023-01-05T12:01:14.235Z,14.20
2023-01-05T12:03:44.947Z,18.13
2023-01-05T12:06:54.014Z,15.48
2023-01-05T12:09:35.147Z,24.52
2023-01-05T12:12:18.800Z,23.55
2023-01-05T12:14:46.815Z,14.65
2023-01-05T12:17:16.018Z,19.00
2023-01-05T12:19:55.267Z,23.08
2023-01-05T12:22:55.773Z,19.33
2023-01-05T12:25:41.504Z,28.75
2023-01-05T12:28:41.142Z,16.65
2023-01-05T12:34:00.573Z,18.13
2023-01-05T12:34:53.086Z,17.05
2023-01-05T12:37:29.565Z,22.92
2023-01-05T12:40:02.979Z,21.38
2023-01-05T12:42:49.371Z,15.75
2023-01-05T12:45:31.455Z,15.90
2023-01-05T12:48:08.938Z,21.33
2023-01-05T12:50:43.973Z,19.20
2023-01-05T12:53:40.847Z,20.90
2023-01-05T12:56:21.681Z,17.35
2023-01-05T12:58:54.460Z,16.42
2023-01-05T13:01:27.372Z,17.33
2023-01-05T13:04:02.889Z,15.88
2023-01-05T13:06:34.646Z,17.45
2023-01-05T13:09:04.642Z,16.70
2023-01-05T13:11:36.477Z,18.52
2023-01-05T13:14:18.513Z,40.05
2023-01-05T13:16:48.968Z,25.70
2023-01-05T13:19:37.086Z,22.55
2023-01-05T13:22:07.169Z,28.08
2023-01-05T13:24:39.443Z,28.93
2023-01-05T13:27:07.217Z,39.70
2023-01-05T13:29:36.822Z,30.27
2023-01-05T13:32:13.481Z,32.88
2023-01-05T13:34:59.677Z,21.58
2023-01-05T13:37:36.324Z,31.55
2023-01-05T13:40:03.970Z,34.08
2023-01-05T13:42:54.299Z,25.35
2023-01-05T13:45:43.812Z,23.67
2023-01-05T13:48:45.295Z,11.52
2023-01-05T13:51:40.937Z,14.48
2023-01-05T13:54:17.694Z,30.27
2023-01-05T13:56:46.941Z,18.05
2023-01-05T13:59:29.137Z,17.98
2023-01-05T14:02:42.299Z,38.85
2023-01-05T14:05:32.518Z,40.50
2023-01-05T14:08:04.790Z,41.15
2023-01-05T14:10:33.285Z,26.38
2023-01-05T14:13:02.006Z,22.40
2023-01-05T14:15:42.471Z,27.92
2023-01-05T14:18:10.752Z,21.98
2023-01-05T14:20:46.940Z,22.02
2023-01-05T14:23:24.040Z,30.15
2023-01-05T14:25:52.943Z,14.10
2023-01-05T14:28:35.580Z,15.48
2023-01-05T14:31:16.382Z,21.85
2023-01-05T14:33:57.928Z,21.40
2023-01-05T14:36:30.401Z,19.73
2023-01-05T14:38:58.832Z,16.25
2023-01-05T14:41:27.963Z,25.17
2023-01-05T14:44:03.001Z,10.43
2023-01-05T14:46:44.476Z,15.05
2023-01-05T14:49:29.630Z,24.40
2023-01-05T14:52:01.539Z,18.02
2023-01-05T14:54:36.621Z,25.58
2023-01-05T14:57:26.076Z,17.77
2023-01-05T15:00:11.603Z,28.92
2023-01-05T15:02:46.799Z,14.07
2023-01-05T15:05:16.692Z,24.90
2023-01-05T15:08:26.220Z,14.07
2023-01-05T15:11:32.236Z,44.72
2023-01-05T15:14:37.527Z,40.90
2023-01-05T15:17:48.116Z,21.33
2023-01-05T15:20:25.361Z,18.77
2023-01-05T15:23:18.051Z,22.27
2023-01-05T15:26:03.151Z,12.07
2023-01-05T15:29:06.762Z,23.88
2023-01-05T15:31:47.510Z,9.60
2023-01-05T15:34:22.100Z,13.35
2023-01-05T15:36:55.135Z,12.60
2023-01-05T15:39:28.051Z,13.77
2023-01-05T15:41:58.091Z,13.65
2023-01-05T15:44:29.042Z,13.43
2023-01-05T15:46:56.698Z,15.70
2023-01-05T15:49:29.281Z,9.05
2023-01-05T15:51:57.043Z,13.93
2023-01-05T15:54:30.125Z,11.55
2023-01-05T15:56:59.117Z,13.82
2023-01-05T15:59:39.851Z,12.45
2023-01-05T16:02:22.805Z,15.05
2023-01-05T16:05:16.839Z,15.43
2023-01-05T16:07:49.775Z,15.40
2023-01-05T19:58:00.109Z,20.65
2023-01-05T20:00:28.182Z,21.50
2023-01-05T20:02:56.044Z,20.52
2023-01-05T20:05:23.716Z,20.95
2023-01-05T20:07:51.524Z,21.77
2023-01-05T20:10:20.411Z,20.48
2023-01-05T20:12:49.362Z,19.10
2023-01-05T20:15:17.358Z,20.48
2023-01-05T20:17:45.937Z,20.80
2023-01-05T20:20:13.773Z,18.98
2023-01-05T20:22:41.455Z,18.92
2023-01-05T20:25:09.501Z,19.10
2023-01-05T20:27:37.127Z,17.83
2023-01-05T20:30:05.202Z,15.88
2023-01-05T20:32:34.945Z,18.30
2023-01-05T20:35:02.871Z,19.02
2023-01-05T20:37:31.995Z,19.38
2023-01-05T20:40:01.138Z,17.42
2023-01-05T20:42:29.656Z,18.70
2023-01-05T20:44:57.419Z,18.65
2023-01-05T20:47:25.440Z,15.75
2023-01-05T20:49:53.659Z,18.35
2023-01-05T20:52:21.338Z,21.00
2023-01-05T20:54:49.827Z,19.50
2023-01-05T20:57:17.625Z,15.95
2023-01-05T20:59:45.295Z,19.67
2023-01-05T21:02:22.914Z,16.17
2023-01-05T21:04:52.484Z,18.88
2023-01-05T21:07:20.514Z,22.58
2023-01-05T21:10:19.921Z,19.88
2023-01-05T21:32:57.086Z,19.45
2023-01-05T21:35:53.917Z,17.63
2023-01-05T21:38:22.768Z,18.27
2023-01-05T21:41:03.694Z,17.37
2023-01-05T21:43:33.270Z,16.42
2023-01-05T21:46:07.446Z,18.77
2023-01-05T21:48:36.234Z,16.83
2023-01-05T21:51:25.453Z,14.73
2023-01-05T21:54:12.009Z,15.02
2023-01-05T21:56:40.380Z,15.10
2023-01-05T21:59:10.375Z,12.48
2023-01-05T22:01:40.880Z,14.10
2023-01-05T22:04:09.927Z,13.38
2023-01-05T22:06:38.948Z,14.98
2023-01-05T22:09:08.188Z,12.98
2023-01-05T22:11:39.924Z,13.80
2023-01-05T22:14:08.023Z,12.73
2023-01-05T22:16:36.878Z,12.95
2023-01-05T22:19:05.121Z,13.00
2023-01-05T22:21:34.185Z,11.60
2023-01-05T22:24:05.476Z,13.77
2023-01-05T22:26:34.484Z,12.60
2023-01-05T22:29:10.757Z,12.10
2023-01-05T22:32:00.590Z,13.07
2023-01-05T22:34:30.746Z,14.20
2023-01-05T22:37:00.357Z,12.23
2023-01-05T22:39:29.744Z,10.70
2023-01-05T22:42:03.848Z,12.95
2023-01-05T22:44:57.210Z,14.37
2023-01-05T22:47:32.000Z,13.35
2023-01-05T22:50:05.045Z,12.70
2023-01-05T22:52:39.719Z,10.77
2023-01-05T22:55:24.174Z,12.23
2023-01-05T22:58:00.377Z,14.25
2023-01-05T23:03:45.547Z,14.18
2023-01-05T23:06:16.749Z,13.73
2023-01-05T23:08:50.523Z,13.65
2023-01-05T23:11:31.964Z,15.25
2023-01-05T23:14:03.984Z,12.00
2023-01-05T23:16:33.511Z,13.48
2023-01-05T23:19:06.230Z,13.63
2023-01-05T23:21:36.443Z,14.80
2023-01-05T23:24:09.180Z,13.95
2023-01-05T23:26:40.244Z,14.52
2023-01-05T23:29:08.417Z,14.90
2023-01-05T23:31:36.269Z,14.93
2023-01-05T23:34:04.509Z,15.00
2023-01-05T23:36:33.001Z,13.30
2023-01-05T23:39:00.784Z,15.13
2023-01-05T23:41:29.009Z,15.57
2023-01-05T23:46:40.506Z,15.02
2023-01-05T23:49:09.037Z,16.60
2023-01-05T23:51:39.697Z,14.70
2023-01-05T23:54:10.942Z,11.02
2023-01-05T23:56:47.238Z,15.07
2023-01-05T23:59:30.337Z,15.32
